Time;durP1;ratioP1;P1;durP2;ratioP2;P2;SDS_P1;SDS_P2;PMS_P1;PMS_P2;Temp;Humidity;BMP_temperature;BMP_pressure;BME280_temperature;BME280_humidity;BME280_pressure;Samples;Min_cycle;Max_cycle;Signal;HPM_P1;HPM_P2
2022/05/18 00:02:01;;;;;;;;;5.67;5.67;;;;;25.19;47.63;101282.50;5091864;28;45006;-70
2022/05/18 00:04:27;;;;;;;;;13.33;6.67;;;;;25.17;47.79;101273.41;5092110;28;45899;-72
2022/05/18 00:06:53;;;;;;;;;8.33;6.00;;;;;25.16;47.57;101278.91;5087002;28;44980;-69
2022/05/18 00:09:19;;;;;;;;;7.33;5.67;;;;;24.83;47.89;101224.16;5092935;28;45120;-69
2022/05/18 00:11:44;;;;;;;;;6.33;5.00;;;;;24.76;48.16;101234.34;5094684;28;44972;-71
2022/05/18 00:14:09;;;;;;;;;4.00;4.00;;;;;24.99;48.53;101282.97;5092811;28;45621;-69
2022/05/18 00:16:35;;;;;;;;;4.00;4.00;;;;;24.96;48.13;101288.53;5091547;28;46450;-68
2022/05/18 00:19:01;;;;;;;;;5.67;5.00;;;;;24.98;48.47;101293.97;5093000;28;45143;-69
2022/05/18 00:21:27;;;;;;;;;7.33;5.00;;;;;24.96;48.85;101295.81;5092035;28;45105;-72
2022/05/18 00:23:53;;;;;;;;;5.33;3.67;;;;;24.90;48.85;101287.78;5092213;28;46730;-71
2022/05/18 00:26:19;;;;;;;;;6.67;6.00;;;;;24.73;49.17;101263.59;5093314;27;45065;-69
2022/05/18 00:28:44;;;;;;;;;6.00;6.00;;;;;24.80;48.85;101282.53;5090946;28;45334;-69
2022/05/18 00:31:13;;;;;;;;;5.67;5.67;;;;;24.90;49.20;101293.25;5093492;28;45076;-71
2022/05/18 00:33:38;;;;;;;;;5.67;5.67;;;;;24.89;49.22;101302.38;5092904;28;45814;-69
2022/05/18 00:36:04;;;;;;;;;5.00;5.00;;;;;24.72;49.64;101286.41;5093498;28;45037;-69
2022/05/18 00:38:29;;;;;;;;;6.33;6.33;;;;;24.76;50.47;101305.41;5092437;28;45389;-69
2022/05/18 00:40:55;;;;;;;;;6.00;6.00;;;;;24.56;50.97;101281.28;5095541;28;45018;-69
2022/05/18 00:43:29;;;;;;;;;7.00;6.00;;;;;24.66;51.01;101312.03;5094355;28;45215;-70
2022/05/18 00:45:59;;;;;;;;;5.00;5.00;;;;;24.63;50.62;101314.81;5094011;28;45143;-70
2022/05/18 00:48:25;;;;;;;;;6.33;6.00;;;;;24.42;50.92;101287.03;5094075;28;45250;-70
2022/05/18 00:50:52;;;;;;;;;5.33;5.00;;;;;24.60;51.72;101315.81;5094239;28;45028;-69
2022/05/18 00:53:22;;;;;;;;;5.00;5.00;;;;;24.60;51.49;101320.34;5094095;28;45701;-69
2022/05/18 00:55:53;;;;;;;;;5.00;5.00;;;;;24.58;51.73;101317.69;5075748;28;45033;-69
2022/05/18 00:58:27;;;;;;;;;5.33;5.33;;;;;24.58;51.55;101330.41;5094360;28;44992;-72
2022/05/18 01:00:53;;;;;;;;;4.00;4.00;;;;;24.39;51.50;101297.13;5094177;28;45047;-70
2022/05/18 01:03:23;;;;;;;;;6.00;5.00;;;;;24.49;51.47;101334.22;5093588;28;45228;-70
2022/05/18 01:05:54;;;;;;;;;8.00;6.33;;;;;24.44;51.44;101330.72;5091951;28;45067;-69
2022/05/18 01:08:30;;;;;;;;;5.00;5.00;;;;;24.39;51.86;101335.38;5091202;28;45198;-70
2022/05/18 01:10:57;;;;;;;;;4.00;4.00;;;;;24.31;51.71;101341.00;5093254;28;45172;-71
2022/05/18 01:13:22;;;;;;;;;6.67;5.33;;;;;24.24;52.34;101342.94;5093681;28;45447;-70
2022/05/18 01:15:49;;;;;;;;;3.00;3.00;;;;;24.24;52.18;101342.94;5092450;28;45182;-68
2022/05/18 01:18:14;;;;;;;;;5.67;3.67;;;;;24.27;51.88;101344.75;5091864;28;45015;-68
2022/05/18 01:20:43;;;;;;;;;8.33;6.67;;;;;24.25;52.31;101344.75;5091687;28;45146;-69
2022/05/18 01:23:31;;;;;;;;;5.00;5.00;;;;;24.14;52.47;101326.78;5090757;28;45667;-69
2022/05/18 01:26:26;;;;;;;;;5.67;5.00;;;;;24.21;52.36;101329.34;5093185;28;45093;-69
2022/05/18 01:28:57;;;;;;;;;5.00;5.00;;;;;23.97;52.68;101305.31;5090047;28;44966;-72
2022/05/18 01:31:44;;;;;;;;;7.33;4.67;;;;;24.16;52.90;101352.25;5093291;28;45069;-69
2022/05/18 01:34:10;;;;;;;;;9.33;9.33;;;;;24.15;53.00;101355.91;5093056;28;45235;-70
2022/05/18 01:36:36;;;;;;;;;5.67;5.67;;;;;24.00;52.91;101325.25;5093062;27;45134;-70
2022/05/18 01:39:03;;;;;;;;;8.00;6.33;;;;;24.00;53.39;101338.88;5093324;28;45257;-71
2022/05/18 01:41:34;;;;;;;;;5.67;5.67;;;;;24.05;53.26;101353.34;5093487;28;45095;-69
2022/05/18 01:44:00;;;;;;;;;6.00;6.00;;;;;24.04;53.78;101348.81;5074725;28;46424;-68
2022/05/18 01:46:29;;;;;;;;;7.67;6.33;;;;;23.99;53.49;101338.91;5093643;28;45223;-70
2022/05/18 01:48:55;;;;;;;;;5.33;3.67;;;;;24.02;53.66;101355.22;5092402;28;45031;-70
2022/05/18 01:51:34;;;;;;;;;7.00;5.33;;;;;24.00;54.06;101358.00;5093033;28;45448;-73
2022/05/18 01:54:00;;;;;;;;;5.00;4.67;;;;;23.84;53.72;101335.59;5092109;28;45671;-71
2022/05/18 01:56:26;;;;;;;;;4.67;4.67;;;;;23.91;54.21;101367.28;5086098;28;44934;-69
2022/05/18 01:58:52;;;;;;;;;6.33;4.67;;;;;23.86;54.20;101362.84;5091926;28;44916;-69
2022/05/18 02:01:17;;;;;;;;;3.67;3.67;;;;;23.83;54.60;101368.34;5092901;28;45071;-70
2022/05/18 02:03:43;;;;;;;;;5.33;4.33;;;;;23.58;55.00;101346.03;5092716;28;45462;-68
2022/05/18 02:06:08;;;;;;;;;8.67;6.67;;;;;23.48;55.50;101343.47;5093256;28;45017;-71
2022/05/18 02:08:35;;;;;;;;;5.00;5.00;;;;;23.52;55.36;101357.94;5093650;28;45359;-68
2022/05/18 02:11:00;;;;;;;;;6.00;6.00;;;;;23.57;55.70;101393.34;5093295;28;44925;-70
2022/05/18 02:13:25;;;;;;;;;4.67;4.33;;;;;23.53;55.33;101385.22;5092918;28;45081;-69
2022/05/18 02:15:52;;;;;;;;;5.33;5.33;;;;;23.47;55.84;101390.75;5092114;28;45045;-68
2022/05/18 02:18:18;;;;;;;;;7.33;5.00;;;;;23.02;55.96;101318.78;5092117;28;45249;-72
2022/05/18 02:20:43;;;;;;;;;5.00;5.00;;;;;23.33;56.12;101390.09;5092515;28;45121;-69
2022/05/18 02:23:09;;;;;;;;;2.00;2.00;;;;;23.35;56.36;101399.16;5092393;28;46643;-69
2022/05/18 02:25:37;;;;;;;;;8.00;5.00;;;;;23.16;56.69;101383.09;5092485;28;44874;-69
2022/05/18 02:28:03;;;;;;;;;5.67;3.67;;;;;23.22;56.49;101394.81;5073917;28;45140;-69
2022/05/18 02:30:29;;;;;;;;;6.67;4.00;;;;;23.14;56.48;101389.50;5091049;28;45223;-70
2022/05/18 02:32:54;;;;;;;;;5.33;4.00;;;;;22.99;56.27;101376.97;5091855;28;46419;-69
2022/05/18 02:35:19;;;;;;;;;4.33;3.00;;;;;23.12;56.21;101410.41;5092160;28;45339;-71
2022/05/18 02:37:45;;;;;;;;;4.00;4.00;;;;;22.99;56.15;101418.72;5092050;28;45174;-70
2022/05/18 02:40:11;;;;;;;;;6.00;4.67;;;;;22.64;56.59;101376.53;5091332;28;45027;-73
2022/05/18 02:42:37;;;;;;;;;3.67;3.00;;;;;22.65;56.39;101404.66;5073116;28;46520;-71
2022/05/18 02:45:04;;;;;;;;;5.00;5.00;;;;;22.79;56.41;101434.47;5090417;28;45336;-70
2022/05/18 02:47:29;;;;;;;;;2.00;2.00;;;;;22.67;56.42;101421.00;5091515;28;44985;-72
2022/05/18 02:49:55;;;;;;;;;2.00;2.00;;;;;22.72;55.91;101424.56;5073074;28;45151;-69
2022/05/18 02:52:20;;;;;;;;;7.00;4.00;;;;;22.76;55.69;101437.22;5090872;28;45637;-69
2022/05/18 02:57:31;;;;;;;;;3.33;3.33;;;;;22.55;55.62;101417.50;5090846;28;45115;-69
2022/05/18 02:59:56;;;;;;;;;2.00;2.00;;;;;22.61;55.74;101447.38;5072678;28;45059;-69
2022/05/18 03:02:21;;;;;;;;;2.00;2.00;;;;;22.21;55.42;101382.50;5090365;28;45607;-70
2022/05/18 03:04:47;;;;;;;;;1.00;1.00;;;;;22.50;55.49;101449.34;5090113;28;44917;-69
2022/05/18 03:07:12;;;;;;;;;1.67;1.67;;;;;22.27;55.41;101415.09;5090394;28;45078;-69
2022/05/18 03:09:38;;;;;;;;;1.67;1.67;;;;;22.31;55.13;101416.00;5090270;28;44928;-69
2022/05/18 03:12:04;;;;;;;;;3.33;1.67;;;;;22.37;55.48;101436.78;5091501;28;45298;-69
2022/05/18 03:14:29;;;;;;;;;2.00;2.00;;;;;22.32;55.74;101434.13;5089925;28;45311;-69
2022/05/18 03:16:55;;;;;;;;;4.33;2.00;;;;;22.31;55.51;101440.50;5089326;28;45403;-68
2022/05/18 03:19:22;;;;;;;;;1.67;1.67;;;;;22.28;55.27;101429.59;5090457;28;45405;-68
2022/05/18 03:24:32;;;;;;;;;1.67;1.00;;;;;22.15;54.33;101426.13;5087756;28;45140;-68
2022/05/18 03:26:57;;;;;;;;;1.67;1.67;;;;;22.18;54.27;101446.97;5091589;28;45173;-69
2022/05/18 03:29:23;;;;;;;;;1.67;1.67;;;;;22.11;54.32;101456.09;5092159;28;45044;-72
2022/05/18 03:31:48;;;;;;;;;1.00;1.00;;;;;21.90;54.38;101430.91;5091296;28;45592;-69
2022/05/18 03:34:14;;;;;;;;;1.00;1.00;;;;;22.01;54.61;101458.91;5091507;28;45072;-73
2022/05/18 03:36:40;;;;;;;;;3.33;2.00;;;;;21.96;54.78;101465.31;5091735;28;45255;-71
2022/05/18 03:39:06;;;;;;;;;1.00;1.00;;;;;21.78;55.14;101445.53;5090796;28;45092;-69
2022/05/18 03:41:34;;;;;;;;;3.00;2.00;;;;;21.88;54.91;101474.44;5089333;28;45672;-68
2022/05/18 03:44:00;;;;;;;;;2.00;1.33;;;;;21.83;55.24;101481.75;5089488;28;45386;-68
2022/05/18 03:46:26;;;;;;;;;1.67;1.67;;;;;21.59;55.24;101442.06;5088939;28;45107;-70
2022/05/18 03:48:52;;;;;;;;;1.00;1.00;;;;;21.71;55.35;101461.00;5088409;28;45394;-71
2022/05/18 03:51:17;;;;;;;;;4.33;3.00;;;;;21.62;55.02;101457.47;5088773;28;45412;-69
2022/05/18 03:53:43;;;;;;;;;3.00;3.00;;;;;21.82;54.80;101495.38;5089133;28;45207;-70
2022/05/18 03:56:09;;;;;;;;;3.67;2.00;;;;;21.78;54.45;101496.28;5088506;28;45140;-69
2022/05/18 03:58:35;;;;;;;;;1.00;1.00;;;;;21.48;54.19;101454.81;5088984;28;45261;-71
2022/05/18 04:01:01;;;;;;;;;2.00;2.00;;;;;21.72;54.49;101509.03;5090647;27;45102;-70
2022/05/18 04:03:29;;;;;;;;;2.67;2.67;;;;;21.75;54.30;101516.28;5091653;28;45219;-71
2022/05/18 04:05:55;;;;;;;;;1.00;1.00;;;;;21.74;54.05;101511.75;5092255;28;45313;-70
2022/05/18 04:08:20;;;;;;;;;2.67;2.00;;;;;21.68;53.90;101498.22;5093353;28;45142;-70
2022/05/18 04:10:46;;;;;;;;;1.33;1.33;;;;;21.64;53.77;101493.69;5094614;28;45336;-72
2022/05/18 04:13:17;;;;;;;;;3.00;2.00;;;;;21.72;53.97;101514.47;5094247;28;45052;-68
2022/05/18 04:15:42;;;;;;;;;1.00;1.00;;;;;21.50;53.55;101496.53;5092511;28;44958;-68
2022/05/18 04:18:08;;;;;;;;;1.00;1.00;;;;;21.61;53.77;101521.78;5093147;28;45215;-71
2022/05/18 04:20:34;;;;;;;;;2.00;0.67;;;;;21.53;53.44;101516.44;5091556;28;45125;-68
2022/05/18 04:23:00;;;;;;;;;1.33;1.33;;;;;21.50;53.49;101516.44;5092468;28;45511;-69
2022/05/18 04:25:27;;;;;;;;;1.00;1.00;;;;;21.39;53.38;101501.97;5094077;28;45376;-69
2022/05/18 04:27:53;;;;;;;;;1.33;1.33;;;;;21.35;53.64;101520.13;5074893;28;45212;-69
2022/05/18 04:30:21;;;;;;;;;2.00;1.00;;;;;21.32;53.54;101513.81;5091938;28;45261;-69
2022/05/18 04:32:47;;;;;;;;;1.33;1.33;;;;;21.29;53.77;101514.72;5092756;28;45038;-68
2022/05/18 04:35:15;;;;;;;;;2.67;2.00;;;;;21.17;53.29;101480.38;5093953;28;44912;-68
2022/05/18 04:37:41;;;;;;;;;1.00;1.00;;;;;21.31;53.20;101501.13;5092163;28;45477;-70
2022/05/18 04:40:08;;;;;;;;;1.33;1.00;;;;;21.39;53.28;101514.69;5093391;28;45519;-69
2022/05/18 04:42:34;;;;;;;;;2.33;1.33;;;;;21.26;53.36;101497.53;5094222;28;45013;-72
2022/05/18 04:44:59;;;;;;;;;1.67;0.67;;;;;21.17;53.16;101483.09;5093838;28;44832;-69
2022/05/18 04:47:25;;;;;;;;;2.00;2.00;;;;;21.24;53.82;101513.84;5088049;28;44980;-69
2022/05/18 04:49:51;;;;;;;;;1.00;1.00;;;;;21.21;53.28;101522.03;5093053;28;45514;-72
2022/05/18 04:52:18;;;;;;;;;1.00;1.00;;;;;21.24;53.64;101549.19;5091405;28;44996;-69
2022/05/18 04:54:44;;;;;;;;;1.33;1.33;;;;;21.18;53.61;101551.91;5091315;28;45109;-69
2022/05/18 04:57:09;;;;;;;;;2.00;2.00;;;;;21.21;53.55;101554.63;5091519;28;45564;-70
2022/05/18 04:59:35;;;;;;;;;2.00;2.00;;;;;21.16;53.64;101541.06;5090721;28;45625;-69
2022/05/18 05:02:00;;;;;;;;;0.00;0.00;;;;;21.07;53.29;101516.66;5091222;28;45406;-69
2022/05/18 05:04:26;;;;;;;;;2.00;2.00;;;;;21.28;53.05;101556.44;5070976;28;45374;-69
2022/05/18 05:06:51;;;;;;;;;3.33;0.33;;;;;21.30;53.29;101567.25;5090693;28;45107;-71
2022/05/18 05:09:17;;;;;;;;;1.33;1.00;;;;;21.12;52.75;101528.41;5072363;28;48011;-69
2022/05/18 05:11:42;;;;;;;;;2.67;2.00;;;;;21.13;53.29;101535.63;5089041;27;45138;-72
2022/05/18 05:14:08;;;;;;;;;2.00;0.67;;;;;21.27;53.18;101565.47;5071878;28;45381;-69
2022/05/18 05:16:34;;;;;;;;;4.00;1.00;;;;;21.10;52.66;101532.03;5087591;28;45404;-71
2022/05/18 05:18:59;;;;;;;;;2.67;1.00;;;;;21.04;52.94;101518.50;5089484;28;45131;-70
2022/05/18 05:21:25;;;;;;;;;1.33;1.00;;;;;21.14;52.86;101542.00;5091195;28;45031;-70
2022/05/18 05:23:50;;;;;;;;;2.33;1.00;;;;;21.20;52.72;101551.91;5090900;28;45279;-69
2022/05/18 05:26:16;;;;;;;;;6.33;5.67;;;;;21.30;52.33;101561.81;5092086;28;45458;-69
2022/05/18 05:28:43;;;;;;;;;2.33;1.00;;;;;21.35;52.23;101581.75;5093550;28;46076;-72
2022/05/18 05:31:11;;;;;;;;;1.00;1.00;;;;;21.37;52.20;101585.38;5091579;28;44962;-68
2022/05/18 05:33:38;;;;;;;;;0.67;0.67;;;;;21.34;52.29;101574.50;5092873;28;45188;-70
2022/05/18 05:36:05;;;;;;;;;3.00;3.00;;;;;21.23;52.02;101566.38;5092541;28;45196;-70
2022/05/18 05:38:31;;;;;;;;;3.00;3.00;;;;;21.10;51.81;101545.63;5092202;28;45652;-69
2022/05/18 05:40:59;;;;;;;;;3.67;3.67;;;;;21.38;51.95;101595.31;5090912;28;45167;-69
2022/05/18 05:43:24;;;;;;;;;20.00;15.33;;;;;21.37;51.87;101593.53;5091325;28;45148;-68
2022/05/18 05:45:58;;;;;;;;;5.33;4.00;;;;;21.38;51.90;101608.00;5090967;28;44984;-72
2022/05/18 05:48:24;;;;;;;;;7.00;7.00;;;;;21.35;51.86;101595.34;5087049;28;45660;-70
2022/05/18 05:50:50;;;;;;;;;4.00;3.00;;;;;21.22;51.63;101575.47;5090749;28;45467;-71
2022/05/18 05:53:15;;;;;;;;;4.00;4.00;;;;;21.41;51.42;101603.44;5091563;28;45275;-69
2022/05/18 05:55:41;;;;;;;;;4.33;3.00;;;;;21.47;51.44;101608.91;5088380;28;45258;-71
2022/05/18 05:58:06;;;;;;;;;1.00;1.00;;;;;21.51;51.56;101602.56;5085204;28;45932;-69
2022/05/18 06:00:32;;;;;;;;;126.67;110.67;;;;;21.46;51.11;101585.31;5089358;28;45114;-71
2022/05/18 06:02:57;;;;;;;;;10.00;10.00;;;;;21.51;51.28;101588.03;5091081;28;45203;-70
2022/05/18 06:05:23;;;;;;;;;4.00;4.00;;;;;21.62;50.81;101612.47;5090741;28;45094;-69
2022/05/18 06:07:48;;;;;;;;;11.33;9.33;;;;;21.62;51.06;101609.75;5091234;28;45390;-69
2022/05/18 06:10:15;;;;;;;;;3.33;3.33;;;;;21.65;50.92;101615.16;5092579;28;45176;-70
2022/05/18 06:12:40;;;;;;;;;7.33;6.00;;;;;21.68;50.67;101607.00;5074953;28;45145;-71
2022/05/18 06:15:08;;;;;;;;;1.67;1.67;;;;;21.80;50.64;101628.66;5092414;28;45028;-70
2022/05/18 06:17:33;;;;;;;;;7.00;7.00;;;;;21.66;50.57;101590.69;5092859;28;45641;-70
2022/05/18 06:19:59;;;;;;;;;3.67;3.00;;;;;21.85;49.86;101623.22;5073045;28;44996;-68
2022/05/18 06:22:27;;;;;;;;;9.33;7.67;;;;;21.88;49.67;101615.03;5090310;28;45346;-72
2022/05/18 06:24:53;;;;;;;;;1.33;1.33;;;;;21.73;49.52;101591.56;5089889;28;45272;-70
2022/05/18 06:27:20;;;;;;;;;3.00;3.00;;;;;21.60;49.07;101562.63;5091428;28;45243;-71
2022/05/18 06:29:47;;;;;;;;;3.33;3.33;;;;;21.56;49.28;101552.66;5073575;28;45184;-69
2022/05/18 06:32:13;;;;;;;;;5.00;1.67;;;;;21.87;49.01;101594.16;5086040;28;45216;-72
2022/05/18 06:34:39;;;;;;;;;0.67;0.67;;;;;22.01;48.92;101605.88;5088045;28;45549;-70
2022/05/18 06:37:05;;;;;;;;;6.67;6.67;;;;;22.08;48.47;101612.16;5086872;28;45496;-69
2022/05/18 06:39:31;;;;;;;;;1.33;1.00;;;;;22.08;48.04;101609.44;5087051;28;45472;-69
2022/05/18 06:41:57;;;;;;;;;4.67;2.00;;;;;22.12;47.93;101613.03;5071200;28;45452;-70
2022/05/18 06:44:24;;;;;;;;;1.00;1.00;;;;;22.14;47.71;101611.19;5090203;28;45224;-71
2022/05/18 06:46:50;;;;;;;;;1.67;1.67;;;;;21.73;47.62;101534.44;5089419;28;45474;-69
2022/05/18 06:49:16;;;;;;;;;6.00;5.00;;;;;22.22;47.49;101617.47;5085403;28;45177;-69
2022/05/18 06:51:43;;;;;;;;;5.67;5.67;;;;;22.21;47.43;101607.53;5090809;28;45179;-68
2022/05/18 06:54:09;;;;;;;;;2.00;2.00;;;;;22.20;47.47;101595.72;5089749;28;45283;-67
2022/05/18 06:56:38;;;;;;;;;2.00;2.00;;;;;22.41;47.47;101621.00;5065040;28;46513;-69
2022/05/18 06:59:05;;;;;;;;;2.33;1.67;;;;;22.45;47.20;101639.09;5090076;28;45272;-71
2022/05/18 07:01:31;;;;;;;;;2.00;2.00;;;;;22.48;47.22;101622.75;5090507;28;45056;-71
2022/05/18 07:03:57;;;;;;;;;1.00;1.00;;;;;22.51;47.24;101622.72;5091500;28;45215;-70
2022/05/18 07:06:25;;;;;;;;;1.00;1.00;;;;;22.43;47.36;101594.66;5091291;28;45243;-72
2022/05/18 07:08:51;;;;;;;;;4.67;3.33;;;;;22.59;47.37;101609.94;5091015;28;45142;-70
2022/05/18 07:11:20;;;;;;;;;1.00;1.00;;;;;22.60;47.28;101621.72;5091431;28;44949;-69
2022/05/18 07:13:51;;;;;;;;;3.00;3.00;;;;;22.58;47.12;101618.13;5087079;28;45393;-72
2022/05/18 07:16:18;;;;;;;;;5.00;5.00;;;;;22.74;47.43;101616.16;5084233;28;45395;-69
2022/05/18 07:18:44;;;;;;;;;9.67;9.67;;;;;22.61;47.31;101596.31;5087969;28;45156;-74
2022/05/18 07:21:11;;;;;;;;;6.33;5.67;;;;;22.72;47.33;101596.19;5089775;28;45148;-73
2022/05/18 07:23:37;;;;;;;;;3.00;2.00;;;;;22.94;47.04;101611.38;5091006;28;44951;-71
2022/05/18 07:26:03;;;;;;;;;4.00;2.00;;;;;22.80;46.92;101577.94;5083783;28;48286;-71
2022/05/18 07:28:29;;;;;;;;;2.00;1.00;;;;;22.91;46.75;101603.25;5071434;28;45160;-71
2022/05/18 07:30:55;;;;;;;;;1.33;1.33;;;;;22.99;46.79;101606.78;5063687;28;45422;-69
2022/05/18 07:33:22;;;;;;;;;3.67;3.00;;;;;23.15;46.95;101615.72;5068089;28;45529;-72
2022/05/18 07:35:49;;;;;;;;;1.00;1.00;;;;;23.25;46.61;101612.91;5072044;28;46606;-72
2022/05/18 07:38:15;;;;;;;;;1.33;1.33;;;;;23.27;46.74;101620.13;5069807;28;45730;-69
2022/05/18 07:40:40;;;;;;;;;2.67;1.67;;;;;23.29;46.57;101611.91;5055814;28;45695;-70
2022/05/18 07:43:06;;;;;;;;;3.33;2.67;;;;;23.27;46.58;101603.75;5072877;28;45482;-68
2022/05/18 07:45:33;;;;;;;;;2.00;2.00;;;;;23.48;46.46;101623.50;5075308;28;45882;-73
2022/05/18 07:47:58;;;;;;;;;5.33;2.33;;;;;23.52;46.27;101630.72;5075399;28;45414;-72
2022/05/18 07:50:24;;;;;;;;;4.00;2.00;;;;;23.34;46.39;101583.66;5074865;28;45418;-69
2022/05/18 07:52:51;;;;;;;;;3.33;2.00;;;;;23.28;46.44;101583.75;5057319;28;45742;-72
2022/05/18 07:55:17;;;;;;;;;3.33;3.00;;;;;23.49;46.49;101603.47;5075532;28;45940;-68
2022/05/18 07:57:43;;;;;;;;;2.33;2.33;;;;;23.41;46.63;101572.69;5075689;28;45783;-67
2022/05/18 08:00:10;;;;;;;;;6.00;6.00;;;;;23.81;46.60;101613.94;5075344;28;45765;-69
2022/05/18 08:02:36;;;;;;;;;4.33;3.67;;;;;23.59;45.73;101569.69;5074125;28;45432;-68
2022/05/18 08:05:02;;;;;;;;;6.00;5.00;;;;;23.96;45.96;101604.66;5075449;28;45862;-68
2022/05/18 08:07:28;;;;;;;;;3.33;3.33;;;;;24.04;45.85;101612.69;5074862;28;45327;-70
2022/05/18 08:15:21;;;;;;;;;1.67;1.67;;;;;24.37;45.13;101615.81;5075337;28;45371;-68
2022/05/18 08:17:47;;;;;;;;;7.00;5.33;;;;;24.39;45.47;101592.13;5074711;28;45393;-69
2022/05/18 08:20:15;;;;;;;;;3.00;3.00;;;;;24.60;44.88;101610.88;5054990;28;45654;-69
2022/05/18 08:22:41;;;;;;;;;11.33;10.00;;;;;24.79;44.25;101611.44;5077421;28;45468;-70
2022/05/18 08:25:07;;;;;;;;;5.00;5.00;;;;;24.87;43.94;101610.41;5075520;28;45477;-72
2022/05/18 08:27:32;;;;;;;;;6.00;3.67;;;;;24.90;44.11;101604.88;5071099;28;45566;-70
2022/05/18 08:30:06;;;;;;;;;6.00;6.00;;;;;25.00;44.30;101606.50;5075756;28;45468;-68
2022/05/18 08:32:31;;;;;;;;;3.67;3.67;;;;;25.10;43.70;101607.22;5083206;28;45462;-68
2022/05/18 08:34:57;;;;;;;;;4.00;4.00;;;;;24.94;43.90;101574.69;5075526;28;46007;-72
2022/05/18 08:37:23;;;;;;;;;4.00;4.00;;;;;24.96;43.78;101567.38;5073595;28;45546;-70
2022/05/18 08:39:51;;;;;;;;;11.00;6.00;;;;;25.23;43.87;101600.53;5055814;28;45654;-71
2022/05/18 08:42:21;;;;;;;;;3.33;3.33;;;;;25.10;43.48;101566.19;5056600;28;45539;-70
2022/05/18 08:44:48;;;;;;;;;3.00;3.00;;;;;25.31;43.54;101595.84;5074008;28;45472;-70
2022/05/18 08:47:22;;;;;;;;;4.00;4.00;;;;;25.35;43.66;101604.88;5073914;28;45457;-69
2022/05/18 08:49:58;;;;;;;;;3.33;3.00;;;;;25.37;44.35;101603.00;5075404;28;45259;-72
2022/05/18 08:52:58;;;;;;;;;4.33;3.33;;;;;25.38;43.98;101602.09;5075563;28;45372;-71
2022/05/18 08:55:50;;;;;;;;;4.00;3.00;;;;;25.33;44.18;101601.28;5075289;28;45493;-70
2022/05/18 08:58:25;;;;;;;;;3.00;2.67;;;;;25.23;43.99;101577.75;5074957;28;45405;-68
2022/05/18 09:00:59;;;;;;;;;6.67;6.00;;;;;25.17;43.86;101552.34;5074812;28;45848;-70
2022/05/18 09:03:52;;;;;;;;;5.33;4.33;;;;;25.54;43.99;101586.22;5074755;28;45414;-69
2022/05/18 09:06:31;;;;;;;;;3.33;3.00;;;;;25.61;43.90;101585.16;5056599;28;46373;-68
2022/05/18 09:11:54;;;;;;;;;3.00;3.00;;;;;25.37;43.31;101543.72;5075189;28;45404;-72
2022/05/18 09:14:22;;;;;;;;;4.00;2.00;;;;;25.59;43.01;101584.31;5075091;28;45508;-70
2022/05/18 09:17:03;;;;;;;;;7.33;7.33;;;;;25.59;43.63;101570.63;5074399;28;46182;-68
2022/05/18 09:19:42;;;;;;;;;3.33;3.33;;;;;25.63;43.34;101555.91;5074364;28;45227;-71
2022/05/18 09:22:33;;;;;;;;;5.67;3.00;;;;;25.87;42.85;101587.28;5074584;28;45317;-67
2022/05/18 09:25:35;;;;;;;;;4.33;3.00;;;;;25.93;42.82;101580.75;5075373;28;45543;-68
2022/05/18 09:28:13;;;;;;;;;4.67;3.67;;;;;25.94;43.16;101579.81;5075006;28;45417;-71
2022/05/18 09:30:41;;;;;;;;;7.00;2.67;;;;;26.01;43.02;101583.34;5075127;28;45438;-69
2022/05/18 09:33:34;;;;;;;;;2.00;2.00;;;;;26.09;43.40;101576.72;5074886;28;45347;-68
2022/05/18 09:36:42;;;;;;;;;5.67;5.00;;;;;25.97;43.12;101537.78;5074873;28;45401;-69
2022/05/18 09:39:17;;;;;;;;;4.67;3.00;;;;;26.24;42.92;101569.94;5074024;28;45410;-70
2022/05/18 09:41:57;;;;;;;;;2.00;2.00;;;;;26.27;42.64;101569.88;5074557;28;45418;-70
2022/05/18 09:44:41;;;;;;;;;3.00;3.00;;;;;26.34;42.96;101573.34;5056285;28;45434;-70
2022/05/18 09:47:10;;;;;;;;;3.00;3.00;;;;;26.42;42.78;101564.94;5074536;28;45367;-70
2022/05/18 09:49:42;;;;;;;;;4.00;4.00;;;;;26.47;42.39;101565.72;5074451;28;45494;-73
2022/05/18 09:52:08;;;;;;;;;3.67;3.67;;;;;26.51;42.42;101563.78;5076268;28;45476;-75
2022/05/18 09:54:35;;;;;;;;;6.00;4.00;;;;;26.55;42.24;101555.44;5077211;28;45325;-72
2022/05/18 09:57:09;;;;;;;;;5.33;5.33;;;;;26.48;41.88;101545.56;5058162;28;45552;-74
2022/05/18 09:59:38;;;;;;;;;2.00;2.00;;;;;26.59;41.69;101561.75;5074474;28;45525;-72
2022/05/18 10:07:50;;;;;;;;;4.00;4.00;;;;;26.64;41.27;101533.28;5074497;28;45321;-73
2022/05/18 10:10:20;;;;;;;;;3.00;3.00;;;;;26.81;41.33;101545.59;5073685;28;45394;-72
2022/05/18 10:12:47;;;;;;;;;7.00;7.00;;;;;26.88;41.11;101543.59;5073673;28;45454;-67
2022/05/18 10:15:24;;;;;;;;;3.00;3.00;;;;;26.76;41.33;101511.94;5073787;28;45288;-73
2022/05/18 10:17:53;;;;;;;;;2.00;2.00;;;;;26.97;41.08;101540.59;5074274;28;45458;-75
2022/05/18 10:20:40;;;;;;;;;3.33;3.33;;;;;27.05;40.83;101544.00;5073465;28;45468;-71
2022/05/18 10:23:28;;;;;;;;;3.00;3.00;;;;;26.80;40.84;101484.41;5055453;28;45309;-69
2022/05/18 10:25:53;;;;;;;;;4.33;4.33;;;;;27.04;40.38;101520.25;5073871;28;45569;-68
2022/05/18 10:28:24;;;;;;;;;5.00;4.67;;;;;27.12;40.80;101522.78;5074467;28;45706;-71
2022/05/18 10:31:22;;;;;;;;;6.00;5.00;;;;;27.02;40.62;101505.69;5055089;28;45879;-71
2022/05/18 10:33:47;;;;;;;;;3.33;3.00;;;;;27.18;40.69;101522.59;5073699;28;45548;-71
2022/05/18 10:36:23;;;;;;;;;6.33;4.00;;;;;27.18;40.32;101517.09;5073294;28;45304;-74
2022/05/18 10:38:55;;;;;;;;;5.33;4.00;;;;;26.99;40.26;101476.53;5073469;28;45369;-69
2022/05/18 10:41:26;;;;;;;;;5.33;4.00;;;;;26.94;40.26;101475.78;5072924;28;46353;-70
2022/05/18 10:43:54;;;;;;;;;5.00;3.33;;;;;27.16;39.75;101508.91;5073062;28;45493;-76
2022/05/18 10:46:41;;;;;;;;;4.33;3.00;;;;;27.11;39.85;101482.56;5072957;28;45534;-68
2022/05/18 10:49:28;;;;;;;;;11.33;10.33;;;;;27.25;40.31;101499.50;5073070;28;45685;-70
2022/05/18 10:51:54;;;;;;;;;4.00;2.33;;;;;27.05;40.74;101456.22;5072934;28;46132;-70
2022/05/18 10:54:26;;;;;;;;;7.33;4.67;;;;;27.23;40.77;101476.69;5072908;28;45289;-68
2022/05/18 10:56:58;;;;;;;;;5.00;4.00;;;;;27.20;40.54;101466.72;5072945;28;45559;-70
2022/05/18 10:59:35;;;;;;;;;8.33;8.33;;;;;27.46;40.38;101494.31;5073253;28;45397;-70
2022/05/18 11:02:28;;;;;;;;;3.67;3.67;;;;;27.51;39.78;101495.06;5072740;28;46091;-71
2022/05/18 11:05:16;;;;;;;;;6.67;4.00;;;;;27.45;39.78;101487.91;5073291;28;45709;-70
2022/05/18 11:07:43;;;;;;;;;16.00;15.33;;;;;27.34;39.92;101474.56;5073595;28;45449;-73
2022/05/18 11:10:10;;;;;;;;;4.33;3.00;;;;;27.26;39.98;101454.66;5056873;28;45336;-71
2022/05/18 11:12:53;;;;;;;;;6.33;3.67;;;;;27.32;39.11;101470.97;5076350;28;45559;-68
2022/05/18 11:15:18;;;;;;;;;3.00;3.00;;;;;27.46;39.48;101488.84;5076358;28;45320;-70
2022/05/18 11:18:04;;;;;;;;;3.00;3.00;;;;;27.41;39.43;101468.88;5057914;28;45390;-70
2022/05/18 11:20:36;;;;;;;;;9.00;8.00;;;;;27.48;39.67;101485.06;5077073;28;45429;-69
2022/05/18 11:23:05;;;;;;;;;11.67;8.33;;;;;27.50;40.54;101485.03;5059199;28;46589;-69
2022/05/18 11:25:56;;;;;;;;;5.67;5.67;;;;;27.49;40.12;101475.91;5076986;28;45439;-72
2022/05/18 11:28:44;;;;;;;;;3.00;3.00;;;;;27.51;39.83;101486.84;5077055;28;45537;-68
2022/05/18 11:31:42;;;;;;;;;5.33;5.33;;;;;27.49;39.21;101486.00;5076304;28;45310;-69
2022/05/18 11:34:19;;;;;;;;;5.00;3.67;;;;;27.49;39.57;101481.41;5076012;28;45581;-70
2022/05/18 11:37:04;;;;;;;;;5.00;4.00;;;;;27.53;39.42;101480.31;5076579;28;45595;-71
2022/05/18 11:39:38;;;;;;;;;5.00;3.67;;;;;27.54;39.17;101479.41;5039334;28;45652;-72
2022/05/18 11:42:20;;;;;;;;;4.00;2.33;;;;;27.56;39.00;101480.22;5076621;28;45434;-69
2022/05/18 11:44:48;;;;;;;;;3.67;2.00;;;;;27.47;39.19;101469.56;5075784;28;46580;-71
2022/05/18 11:47:30;;;;;;;;;7.33;5.33;;;;;27.45;38.58;101463.22;5075960;28;45386;-69
2022/05/18 11:50:18;;;;;;;;;6.33;4.00;;;;;27.33;38.65;101439.81;5076726;28;45667;-77
2022/05/18 11:53:09;;;;;;;;;3.67;2.00;;;;;27.44;38.06;101463.25;5076921;28;45444;-70
2022/05/18 11:55:50;;;;;;;;;4.00;3.67;;;;;27.39;37.84;101445.13;5075775;28;45424;-73